Decoded Metar for KLBX (ANGLETON in TX, USA) (IATA:LBX) | Meteo·Mobile Aviation Weather
aviador You're here:

KLBX Decoded Metar

ANGLETON in TX, USA
Report Time2018-11-18 20:16:00
UTC Time2018-11-18 20:29:02
Flight Rules ifr IFR
Wind020° at 08 kt
W.Decomp.*RWY 35: 7.3 kt HW 3.4 kt RCW
W.Rank020° ranks 9
Current wind is above 020° avg. (6.8)
Visibility9656 m
Phenomena:Light Rain
Mist
Clouds:Broken 006 Hf
Overcast 060 Hf
Ceiling600 ft
Temp18°C (ISA +3)
Dew Point18°C (100% RH)
AAT17.9°C
QNH1020 hPa
Density Alt413 ft
Elevation20 ft
Report Wrong Elevation
Raw Report
KLBX 182016Z AUTO 02008KT 6SM -RA BR BKN006 OVC060 18/18 A3011 RMK
AO2 P0000 T01830178=

Extra information for KLBX:More info

Metar Taf Metar & Taf Last 4 Metars F.Rules Stats Wind Profile Meteogram Temp Stats Airport Information Weather charts Add Link Nearby VenuesMetar ALERT Operation Metar Decoded Social comments

AIRNAV info for KLBX